Nancy-Essey Airport

Airport
ICAO code: 
LFSN
IATA Code: 
ENC
Summary
ICAO Region: 
EUR
Territory: 
Location: 
, Lorraine
Serving: 
Nancy
Elevation: 
751 ft
Coordinates: 
Aerial View: 
48° 41' 31.448" N, 6° 13' 49.649" E
Metar
Observation
LFSN 060500Z AUTO VRB03KT 5000 BR OVC008 01/01 Q1013
Station
Nancy / Essey
Date/Time
2021-12-06 05:00:00
Wind speed
03 kts
Lowest cloud amount
overcast
Temperature
1°C
Dew point
1°C
Humidity
100%
QNH
1013 hPa
Weather condition
n/a

Runways

Designator Length Width Surface Rops
3/21 1400 40 ASP Yes/Yes
Airport map: 
Aerial View: 

SKYbrary Partners:

Safety knowledge contributed by: